createdAt,value
2023-01-28T00:01:54.614Z,2.63
2023-01-28T00:04:24.079Z,2.73
2023-01-28T00:06:53.739Z,2.83
2023-01-28T00:09:21.854Z,2.50
2023-01-28T00:11:49.932Z,2.60
2023-01-28T00:14:18.111Z,3.20
2023-01-28T00:16:46.528Z,2.47
2023-01-28T00:19:14.769Z,2.90
2023-01-28T00:21:44.315Z,2.80
2023-01-28T00:24:12.582Z,2.73
2023-01-28T00:26:40.763Z,2.83
2023-01-28T00:29:09.124Z,2.80
2023-01-28T00:31:37.806Z,3.27
2023-01-28T00:34:06.020Z,2.90
2023-01-28T00:36:35.369Z,3.03
2023-01-28T00:39:04.875Z,3.20
2023-01-28T00:41:33.353Z,3.00
2023-01-28T00:44:01.586Z,2.83
2023-01-28T00:46:29.906Z,3.00
2023-01-28T00:48:58.120Z,2.70
2023-01-28T00:51:26.259Z,2.87
2023-01-28T00:53:54.640Z,3.07
2023-01-28T00:56:24.148Z,2.97
2023-01-28T00:58:52.315Z,2.60
2023-01-28T01:01:22.942Z,3.00
2023-01-28T01:03:57.598Z,2.43
2023-01-28T01:06:26.587Z,2.83
2023-01-28T01:08:54.821Z,3.10
2023-01-28T01:11:24.892Z,2.70
2023-01-28T01:13:55.005Z,2.77
2023-01-28T01:16:28.065Z,2.47
2023-01-28T01:18:57.346Z,3.07
2023-01-28T01:21:27.380Z,3.30
2023-01-28T01:23:55.967Z,2.60
2023-01-28T01:26:27.699Z,2.53
2023-01-28T01:28:56.283Z,2.77
2023-01-28T01:31:24.668Z,2.40
2023-01-28T01:33:53.659Z,2.73
2023-01-28T01:36:22.482Z,2.90
2023-01-28T01:38:55.125Z,2.80
2023-01-28T01:41:31.151Z,2.97
2023-01-28T01:44:00.682Z,2.50
2023-01-28T01:46:37.411Z,3.10
2023-01-28T01:49:22.067Z,2.40
2023-01-28T01:51:53.543Z,3.40
2023-01-28T01:54:23.505Z,3.10
2023-01-28T01:56:54.283Z,2.40
2023-01-28T01:59:27.001Z,2.60
2023-01-28T02:01:56.284Z,2.30
2023-01-28T02:04:28.039Z,2.43
2023-01-28T02:06:56.962Z,2.30
2023-01-28T02:09:27.450Z,2.37
2023-01-28T02:12:00.337Z,2.60
2023-01-28T02:14:32.400Z,2.80
2023-01-28T02:17:02.625Z,2.70
2023-01-28T02:19:37.840Z,2.93
2023-01-28T02:22:19.464Z,3.00
2023-01-28T02:25:10.410Z,2.60
2023-01-28T02:27:54.813Z,2.87
2023-01-28T02:30:27.526Z,2.80
2023-01-28T02:33:00.444Z,2.47
2023-01-28T02:35:38.952Z,2.67
2023-01-28T02:38:11.239Z,2.80
2023-01-28T02:40:57.256Z,2.40
2023-01-28T02:43:37.147Z,2.63
2023-01-28T02:46:32.663Z,2.40
2023-01-28T02:49:00.944Z,2.00
2023-01-28T02:51:40.966Z,2.40
2023-01-28T02:54:14.791Z,2.90
2023-01-28T02:56:49.487Z,3.30
2023-01-28T02:59:34.252Z,2.80
2023-01-28T03:02:10.757Z,2.70
2023-01-28T03:04:45.392Z,2.30
2023-01-28T03:07:15.364Z,2.30
2023-01-28T03:09:47.281Z,2.60
2023-01-28T03:12:37.873Z,2.63
2023-01-28T03:15:32.182Z,2.27
2023-01-28T03:18:22.501Z,2.40
2023-01-28T03:21:14.721Z,2.57
2023-01-28T03:24:07.454Z,2.03
2023-01-28T03:26:57.493Z,2.30
2023-01-28T03:29:45.016Z,2.33
2023-01-28T03:32:32.689Z,1.80
2023-01-28T03:35:18.468Z,2.00
2023-01-28T03:37:47.133Z,2.00
2023-01-28T03:40:15.578Z,2.10
2023-01-28T03:42:43.682Z,2.20
2023-01-28T03:45:14.474Z,2.10
2023-01-28T03:47:44.803Z,1.97
2023-01-28T03:50:12.952Z,2.17
2023-01-28T03:52:41.167Z,2.07
2023-01-28T03:55:14.896Z,1.90
2023-01-28T03:57:44.958Z,2.13
2023-01-28T04:00:14.561Z,1.93
2023-01-28T04:02:44.310Z,2.70
2023-01-28T04:05:16.444Z,2.30
2023-01-28T04:07:44.780Z,2.30
2023-01-28T04:10:13.429Z,1.90
2023-01-28T04:12:41.606Z,1.87
2023-01-28T04:15:16.908Z,2.03
2023-01-28T04:17:50.312Z,2.00
2023-01-28T04:20:19.122Z,2.17
2023-01-28T04:22:47.263Z,2.00
2023-01-28T04:25:16.120Z,1.90
2023-01-28T04:27:44.872Z,1.90
2023-01-28T04:30:13.829Z,2.00
2023-01-28T04:32:42.000Z,2.10
2023-01-28T04:35:11.757Z,1.90
2023-01-28T04:37:42.080Z,1.83
2023-01-28T04:40:11.606Z,1.80
2023-01-28T04:42:39.995Z,1.70
2023-01-28T04:45:10.952Z,2.00
2023-01-28T04:47:39.117Z,2.23
2023-01-28T04:50:07.901Z,2.07
2023-01-28T04:52:37.388Z,2.00
2023-01-28T04:55:06.204Z,2.30
2023-01-28T04:57:34.456Z,2.20
2023-01-28T05:00:02.636Z,2.30
2023-01-28T05:02:30.762Z,2.27
2023-01-28T05:04:58.913Z,2.30
2023-01-28T05:07:27.101Z,2.17
2023-01-28T05:09:56.588Z,2.40
2023-01-28T05:12:24.766Z,2.50
2023-01-28T05:14:52.869Z,2.63
2023-01-28T05:17:21.099Z,2.43
2023-01-28T05:19:49.292Z,2.40
2023-01-28T05:22:17.381Z,2.50
2023-01-28T05:24:45.513Z,2.53
2023-01-28T05:27:15.020Z,2.50
2023-01-28T05:29:43.211Z,2.20
2023-01-28T05:32:11.422Z,2.20
2023-01-28T05:34:39.651Z,2.20
2023-01-28T05:37:07.820Z,2.20
2023-01-28T05:39:35.963Z,2.20
2023-01-28T05:42:04.285Z,2.43
2023-01-28T05:44:33.871Z,2.20
2023-01-28T05:47:01.946Z,1.93
2023-01-28T05:49:30.047Z,2.30
2023-01-28T05:51:58.185Z,2.20
2023-01-28T05:54:26.293Z,2.60
2023-01-28T05:56:54.535Z,2.50
2023-01-28T05:59:22.714Z,2.40
2023-01-28T06:01:52.394Z,2.93
2023-01-28T06:04:20.546Z,2.50
2023-01-28T06:06:49.109Z,2.40
2023-01-28T06:09:17.278Z,2.77
2023-01-28T06:11:45.739Z,2.30
2023-01-28T06:14:13.865Z,2.10
2023-01-28T06:16:41.969Z,2.30
2023-01-28T06:19:11.399Z,2.60
2023-01-28T06:21:39.503Z,2.60
2023-01-28T06:24:07.797Z,2.63
2023-01-28T06:26:35.973Z,2.63
2023-01-28T06:29:04.278Z,2.80
2023-01-28T06:31:32.511Z,2.63
2023-01-28T06:34:00.561Z,2.90
2023-01-28T06:36:30.079Z,2.90
2023-01-28T06:38:58.764Z,3.30
2023-01-28T06:41:26.849Z,2.67
2023-01-28T06:43:54.876Z,3.00
2023-01-28T06:46:23.001Z,3.10
2023-01-28T06:48:51.087Z,3.30
2023-01-28T06:51:19.252Z,3.30
2023-01-28T06:53:48.743Z,3.00
2023-01-28T06:56:16.837Z,3.20
2023-01-28T06:58:44.973Z,3.07
2023-01-28T07:01:13.133Z,3.10
2023-01-28T07:03:41.229Z,2.80
2023-01-28T07:06:09.470Z,2.77
2023-01-28T07:08:38.082Z,3.23
2023-01-28T07:11:07.711Z,2.70
2023-01-28T07:13:36.106Z,2.90
2023-01-28T07:16:04.288Z,3.00
2023-01-28T07:18:32.442Z,2.87
2023-01-28T07:21:00.668Z,3.13
2023-01-28T07:23:29.201Z,3.27
2023-01-28T07:26:01.610Z,2.80
2023-01-28T07:28:31.455Z,2.90
2023-01-28T07:30:59.777Z,2.70
2023-01-28T07:33:28.231Z,2.90
2023-01-28T07:35:56.370Z,3.07
2023-01-28T07:38:24.516Z,2.80
2023-01-28T07:40:52.741Z,2.63
2023-01-28T07:43:20.837Z,2.97
2023-01-28T07:45:51.181Z,3.07
2023-01-28T07:48:19.410Z,2.47
2023-01-28T07:50:49.623Z,2.30
2023-01-28T07:53:17.787Z,2.67
2023-01-28T07:55:45.838Z,2.77
2023-01-28T07:58:14.282Z,2.53
2023-01-28T08:00:42.462Z,2.80
2023-01-28T08:03:15.827Z,2.67
2023-01-28T08:05:47.434Z,2.30
2023-01-28T08:08:16.533Z,2.53
2023-01-28T08:10:45.112Z,2.40
2023-01-28T08:13:14.352Z,3.00
2023-01-28T08:15:42.858Z,3.40
2023-01-28T08:18:14.500Z,3.57
2023-01-28T08:20:44.930Z,4.17
2023-01-28T08:23:15.728Z,3.03
2023-01-28T08:25:44.101Z,3.40
2023-01-28T08:28:13.570Z,2.60
2023-01-28T08:30:42.058Z,2.37
2023-01-28T08:33:12.220Z,2.23
2023-01-28T08:35:43.093Z,2.70
2023-01-28T08:38:15.320Z,2.63
2023-01-28T08:40:43.417Z,2.23
2023-01-28T08:43:11.464Z,2.27
2023-01-28T08:45:41.591Z,2.10
2023-01-28T08:48:13.463Z,2.40
2023-01-28T08:50:43.551Z,2.53
2023-01-28T08:53:13.298Z,2.27
2023-01-28T08:55:41.446Z,2.40
2023-01-28T08:58:12.426Z,2.30
2023-01-28T09:00:41.246Z,2.30
2023-01-28T09:03:09.533Z,2.57
2023-01-28T09:05:38.271Z,2.23
2023-01-28T09:08:09.506Z,2.27
2023-01-28T09:10:38.541Z,2.60
2023-01-28T09:13:07.001Z,2.27
2023-01-28T09:15:35.156Z,2.37
2023-01-28T09:18:03.293Z,2.30
2023-01-28T09:20:32.334Z,2.40
2023-01-28T09:23:00.603Z,2.17
2023-01-28T09:25:30.202Z,2.43
2023-01-28T09:27:59.375Z,2.10
2023-01-28T09:30:27.830Z,2.00
2023-01-28T09:32:58.182Z,2.27
2023-01-28T09:35:26.766Z,2.03
2023-01-28T09:37:58.827Z,2.10
2023-01-28T09:40:35.586Z,2.00
2023-01-28T09:43:21.555Z,2.47
2023-01-28T09:45:51.776Z,2.23
2023-01-28T09:48:23.049Z,2.23
2023-01-28T09:50:54.361Z,2.00
2023-01-28T09:53:24.887Z,2.37
2023-01-28T09:55:57.731Z,2.00
2023-01-28T09:58:25.903Z,2.17
2023-01-28T10:00:59.191Z,2.77
2023-01-28T10:03:48.204Z,2.30
2023-01-28T10:06:27.536Z,1.93
2023-01-28T10:09:21.979Z,2.10
2023-01-28T10:12:05.225Z,2.20
2023-01-28T10:14:47.156Z,2.10
2023-01-28T10:17:23.163Z,2.07
2023-01-28T10:19:56.356Z,2.00
2023-01-28T10:22:28.309Z,1.97
2023-01-28T10:25:01.955Z,1.73
2023-01-28T10:27:32.505Z,1.80
2023-01-28T10:30:10.085Z,1.70
2023-01-28T10:32:45.011Z,1.90
2023-01-28T10:35:13.806Z,1.80
2023-01-28T10:37:42.144Z,1.87
2023-01-28T10:40:21.233Z,2.13
2023-01-28T10:42:55.566Z,1.70
2023-01-28T10:45:26.458Z,2.00
2023-01-28T10:48:04.774Z,1.50
2023-01-28T10:50:35.279Z,1.60
2023-01-28T10:53:07.179Z,2.00
2023-01-28T10:55:51.762Z,2.10
2023-01-28T11:01:50.974Z,1.70
2023-01-28T11:04:25.385Z,1.77
2023-01-28T11:07:00.503Z,1.60
2023-01-28T11:09:31.682Z,2.00
2023-01-28T11:12:00.152Z,1.87
2023-01-28T11:14:34.546Z,1.90
2023-01-28T11:17:02.794Z,1.90
2023-01-28T11:19:36.526Z,1.90
2023-01-28T11:22:04.998Z,1.50
2023-01-28T11:24:35.842Z,1.80
2023-01-28T11:27:16.335Z,1.60
2023-01-28T11:29:46.478Z,1.90
2023-01-28T11:32:20.200Z,1.60
2023-01-28T11:34:53.926Z,1.77
2023-01-28T11:37:24.364Z,2.00
2023-01-28T11:40:03.251Z,2.43
2023-01-28T11:42:32.927Z,2.33
2023-01-28T11:45:02.424Z,1.97
2023-01-28T11:47:45.975Z,1.80
2023-01-28T11:50:25.461Z,2.03
2023-01-28T11:53:06.926Z,2.00
2023-01-28T11:56:02.968Z,2.00
2023-01-28T11:58:39.388Z,1.90
2023-01-28T12:01:14.853Z,1.97
2023-01-28T12:04:14.394Z,1.90
2023-01-28T12:06:59.709Z,1.60
2023-01-28T12:09:33.345Z,1.80
2023-01-28T12:12:17.868Z,2.00
2023-01-28T12:15:10.977Z,1.67
2023-01-28T12:17:58.083Z,1.80
2023-01-28T12:20:32.097Z,1.70
2023-01-28T12:23:11.991Z,2.13
2023-01-28T12:26:04.212Z,1.70
2023-01-28T12:28:50.385Z,1.60
2023-01-28T12:31:35.376Z,1.73
2023-01-28T12:34:31.402Z,1.87
2023-01-28T12:37:07.458Z,1.53
2023-01-28T12:39:48.095Z,1.80
2023-01-28T12:42:21.363Z,1.80
2023-01-28T12:44:53.158Z,1.90
2023-01-28T12:47:23.873Z,2.03
2023-01-28T12:49:58.543Z,2.10
2023-01-28T12:52:31.122Z,2.20
2023-01-28T12:55:04.436Z,1.73
2023-01-28T12:57:34.882Z,2.00
2023-01-28T13:00:24.161Z,2.07
2023-01-28T13:02:59.580Z,2.20
2023-01-28T13:05:34.240Z,1.80
2023-01-28T13:08:07.247Z,1.97
2023-01-28T13:10:39.886Z,2.10
2023-01-28T13:13:08.882Z,2.17
2023-01-28T13:15:41.092Z,2.30
2023-01-28T13:18:09.300Z,2.00
2023-01-28T13:20:40.930Z,1.90
2023-01-28T13:23:24.801Z,2.00
2023-01-28T13:25:54.241Z,1.90
2023-01-28T13:28:31.222Z,1.90
2023-01-28T13:31:05.015Z,2.20
2023-01-28T13:33:35.243Z,1.90
2023-01-28T13:36:23.090Z,1.97
2023-01-28T13:39:02.546Z,1.77
2023-01-28T13:41:39.880Z,1.80
2023-01-28T13:44:20.263Z,1.80
2023-01-28T13:46:50.308Z,2.00
2023-01-28T13:49:23.822Z,1.97
2023-01-28T13:52:01.205Z,1.60
2023-01-28T13:54:32.115Z,1.80
2023-01-28T13:57:21.805Z,1.50
2023-01-28T13:59:58.707Z,1.50
2023-01-28T14:03:09.773Z,2.30
2023-01-28T14:06:06.777Z,1.77
2023-01-28T14:08:58.263Z,2.00
2023-01-28T14:11:56.077Z,1.90
2023-01-28T14:14:38.244Z,1.80
2023-01-28T14:17:13.249Z,1.80
2023-01-28T14:19:42.162Z,2.10
2023-01-28T14:22:10.995Z,1.60
2023-01-28T14:24:41.647Z,1.90
2023-01-28T14:27:16.377Z,1.83
2023-01-28T14:29:54.349Z,1.50
2023-01-28T14:32:28.683Z,1.50
2023-01-28T14:34:59.089Z,1.80
2023-01-28T14:37:31.063Z,1.90
2023-01-28T14:40:02.689Z,1.97
2023-01-28T14:42:34.022Z,2.20
2023-01-28T14:45:18.138Z,2.30
2023-01-28T14:47:59.233Z,2.00
2023-01-28T14:50:53.181Z,1.80
2023-01-28T14:53:41.545Z,2.00
2023-01-28T14:56:19.755Z,2.03
2023-01-28T14:58:50.519Z,1.70
2023-01-28T15:01:23.050Z,1.90
2023-01-28T15:03:51.766Z,1.93
2023-01-28T15:06:24.159Z,2.30
2023-01-28T15:08:52.433Z,1.97
2023-01-28T15:11:24.999Z,2.20
2023-01-28T15:13:57.733Z,2.03
2023-01-28T15:16:29.115Z,2.10
2023-01-28T15:18:59.307Z,1.97
2023-01-28T15:21:29.896Z,1.90
2023-01-28T15:24:00.938Z,2.50
2023-01-28T15:26:33.531Z,2.47
2023-01-28T15:29:02.038Z,2.23
2023-01-28T15:31:32.821Z,2.47
2023-01-28T15:34:03.051Z,2.20
2023-01-28T15:36:32.608Z,2.07
2023-01-28T15:39:00.742Z,2.50
2023-01-28T15:41:35.701Z,2.47
2023-01-28T15:44:05.005Z,3.23
2023-01-28T15:46:33.932Z,2.40
2023-01-28T15:49:04.801Z,2.57
2023-01-28T15:51:35.007Z,2.37
2023-01-28T15:54:07.868Z,2.53
2023-01-28T15:56:38.138Z,2.60
2023-01-28T15:59:20.943Z,2.30
2023-01-28T16:01:49.125Z,2.40
2023-01-28T16:04:27.908Z,2.60
2023-01-28T16:06:57.662Z,2.33
2023-01-28T16:09:28.556Z,2.40
2023-01-28T16:12:05.509Z,2.50
2023-01-28T16:14:39.111Z,2.67
2023-01-28T16:17:07.375Z,2.17
2023-01-28T16:19:39.392Z,2.27
2023-01-28T16:22:08.523Z,1.87
2023-01-28T16:24:37.283Z,2.40
2023-01-28T16:27:20.393Z,8.77
2023-01-28T16:29:48.407Z,3.30
2023-01-28T16:32:31.801Z,2.50
2023-01-28T16:35:00.058Z,1.73
2023-01-28T16:37:28.255Z,1.90
2023-01-28T16:39:58.111Z,2.57
2023-01-28T16:42:29.812Z,2.50
2023-01-28T16:44:57.905Z,2.67
2023-01-28T16:47:26.063Z,2.60
2023-01-28T16:49:54.206Z,3.20
2023-01-28T16:52:22.275Z,4.00
2023-01-28T16:54:50.655Z,6.33
2023-01-28T16:57:22.449Z,6.07
2023-01-28T16:59:51.991Z,4.47
2023-01-28T17:02:20.112Z,5.40
2023-01-28T17:04:48.199Z,4.63
2023-01-28T17:07:16.533Z,3.57
2023-01-28T17:09:44.704Z,3.20
2023-01-28T17:12:12.809Z,2.73
2023-01-28T17:14:40.927Z,2.77
2023-01-28T17:17:10.363Z,4.33
2023-01-28T17:19:38.547Z,6.10
2023-01-28T17:22:06.741Z,7.23
2023-01-28T17:24:34.915Z,6.77
2023-01-28T17:27:03.002Z,5.27
2023-01-28T17:29:31.146Z,3.60
2023-01-28T17:31:59.392Z,3.13
2023-01-28T17:34:29.008Z,3.00
2023-01-28T17:36:57.122Z,2.57
2023-01-28T17:39:25.577Z,2.90
2023-01-28T17:41:53.801Z,2.87
2023-01-28T17:44:22.425Z,3.00
2023-01-28T17:46:50.510Z,2.27
2023-01-28T17:49:18.604Z,2.40
2023-01-28T17:51:48.754Z,2.57
2023-01-28T17:54:17.027Z,2.97
2023-01-28T17:56:45.054Z,2.40
2023-01-28T17:59:16.798Z,2.67
2023-01-28T18:01:47.449Z,2.33
2023-01-28T18:04:15.611Z,2.70
2023-01-28T18:06:44.825Z,2.10
2023-01-28T18:09:14.370Z,2.07
2023-01-28T18:11:42.398Z,2.90
2023-01-28T18:14:10.505Z,2.50
2023-01-28T18:16:38.573Z,2.87
2023-01-28T18:19:08.871Z,2.53
2023-01-28T18:21:54.180Z,2.80
2023-01-28T18:24:24.887Z,3.13
2023-01-28T18:26:55.274Z,2.33
2023-01-28T18:29:24.216Z,2.90
2023-01-28T18:31:54.372Z,2.40
2023-01-28T18:34:23.206Z,2.40
2023-01-28T18:36:51.442Z,3.17
2023-01-28T18:39:20.597Z,2.80
2023-01-28T18:41:53.026Z,3.20
2023-01-28T18:44:21.481Z,4.30
2023-01-28T18:46:49.596Z,4.80
2023-01-28T18:49:17.812Z,4.43
2023-01-28T18:51:45.919Z,4.40
2023-01-28T18:54:15.755Z,3.57
2023-01-28T18:56:44.668Z,2.60
2023-01-28T18:59:15.395Z,3.10
2023-01-28T19:01:44.058Z,2.63
2023-01-28T19:04:12.213Z,2.50
2023-01-28T19:06:40.308Z,3.00
2023-01-28T19:09:09.669Z,2.47
2023-01-28T19:11:38.569Z,2.70
2023-01-28T19:14:06.766Z,3.03
2023-01-28T19:16:37.352Z,2.70
2023-01-28T19:19:06.319Z,3.03
2023-01-28T19:21:35.158Z,2.43
2023-01-28T19:24:06.606Z,3.27
2023-01-28T19:26:35.885Z,2.80
2023-01-28T19:29:06.935Z,4.13
2023-01-28T19:31:36.850Z,4.13
2023-01-28T19:34:05.405Z,3.50
2023-01-28T19:36:35.328Z,2.97
2023-01-28T19:39:06.640Z,2.70
2023-01-28T19:41:34.750Z,3.03
2023-01-28T19:44:03.126Z,2.60
2023-01-28T19:46:31.488Z,2.83
2023-01-28T19:49:00.962Z,3.30
2023-01-28T19:51:29.060Z,3.90
2023-01-28T19:53:57.400Z,3.53
2023-01-28T19:56:27.180Z,3.13
2023-01-28T19:58:55.862Z,3.23
2023-01-28T20:01:27.969Z,3.50
2023-01-28T20:04:01.181Z,5.27
2023-01-28T20:06:31.821Z,6.00
2023-01-28T20:09:02.154Z,4.13
2023-01-28T20:11:30.772Z,3.60
2023-01-28T20:13:59.828Z,3.03
2023-01-28T20:16:29.310Z,2.50
2023-01-28T20:18:59.057Z,2.70
2023-01-28T20:21:29.619Z,3.33
2023-01-28T20:23:59.421Z,3.67
2023-01-28T20:26:31.248Z,3.87
2023-01-28T20:29:01.460Z,3.33
2023-01-28T20:31:29.701Z,3.40
2023-01-28T20:33:57.941Z,3.70
2023-01-28T20:36:26.214Z,3.23
2023-01-28T20:38:55.785Z,3.30
2023-01-28T20:41:27.041Z,3.73
2023-01-28T20:43:55.360Z,3.60
2023-01-28T20:46:25.532Z,3.40
2023-01-28T20:48:56.395Z,3.30
2023-01-28T20:51:26.432Z,3.83
2023-01-28T20:53:56.205Z,3.70
2023-01-28T20:56:27.516Z,3.70
2023-01-28T20:58:57.975Z,4.50
2023-01-28T21:01:28.123Z,4.03
2023-01-28T21:03:56.747Z,3.77
2023-01-28T21:06:26.037Z,3.80
2023-01-28T21:08:55.473Z,3.43
2023-01-28T21:11:24.633Z,4.27
2023-01-28T21:13:53.033Z,4.13
2023-01-28T21:16:21.532Z,3.83
2023-01-28T21:18:50.264Z,4.20
2023-01-28T21:21:20.514Z,4.03
2023-01-28T21:23:48.999Z,3.90
2023-01-28T21:26:18.822Z,4.00
2023-01-28T21:28:46.845Z,4.40
2023-01-28T21:31:17.573Z,4.80
2023-01-28T21:33:49.660Z,4.20
2023-01-28T21:36:18.662Z,4.57
2023-01-28T21:38:51.150Z,4.80
2023-01-28T21:41:20.712Z,4.23
2023-01-28T21:43:52.171Z,4.73
2023-01-28T21:46:20.509Z,4.63
2023-01-28T21:48:48.817Z,4.37
2023-01-28T21:51:34.832Z,5.40
2023-01-28T21:54:03.243Z,4.47
2023-01-28T21:56:32.974Z,4.50
2023-01-28T21:59:18.908Z,4.63
2023-01-28T22:01:47.608Z,4.57
2023-01-28T22:04:16.483Z,5.93
2023-01-28T22:06:45.345Z,24.50
2023-01-28T22:09:14.252Z,6.60
2023-01-28T22:11:45.892Z,6.80
2023-01-28T22:14:14.974Z,5.50
2023-01-28T22:16:43.953Z,5.30
2023-01-28T22:19:12.959Z,5.17
2023-01-28T22:21:42.282Z,5.20
2023-01-28T22:24:12.393Z,5.33
2023-01-28T22:26:40.873Z,5.53
2023-01-28T22:29:10.384Z,6.93
2023-01-28T22:31:38.961Z,5.97
2023-01-28T22:34:07.289Z,6.23
2023-01-28T22:36:37.305Z,4.87
2023-01-28T22:39:07.881Z,5.60
2023-01-28T22:41:36.092Z,5.67
2023-01-28T22:44:04.432Z,5.83
2023-01-28T22:46:35.481Z,8.27
2023-01-28T22:49:04.310Z,6.30
2023-01-28T22:51:34.768Z,6.57
2023-01-28T22:54:03.696Z,6.00
2023-01-28T22:56:32.469Z,6.40
2023-01-28T22:59:02.307Z,5.70
2023-01-28T23:01:31.177Z,6.37
2023-01-28T23:04:01.009Z,5.70
2023-01-28T23:06:30.093Z,5.53
2023-01-28T23:08:58.310Z,5.87
2023-01-28T23:11:27.746Z,5.83
2023-01-28T23:14:15.725Z,6.67
2023-01-28T23:17:01.609Z,5.57
2023-01-28T23:19:49.421Z,6.13
2023-01-28T23:22:40.151Z,6.10
2023-01-28T23:25:09.257Z,6.13
2023-01-28T23:27:37.395Z,6.33
2023-01-28T23:30:10.515Z,6.90
2023-01-28T23:32:40.474Z,7.03
2023-01-28T23:35:11.251Z,5.73
2023-01-28T23:37:39.631Z,6.50
2023-01-28T23:40:08.544Z,6.40
2023-01-28T23:42:36.713Z,8.50
2023-01-28T23:45:05.187Z,10.00
2023-01-28T23:47:33.388Z,7.33
2023-01-28T23:50:01.804Z,7.43
2023-01-28T23:52:31.299Z,7.17
2023-01-28T23:54:59.399Z,6.77
2023-01-28T23:57:27.540Z,7.90
2023-01-28T23:59:55.656Z,7.33
